Time;durP1;ratioP1;P1;durP2;ratioP2;P2;SDS_P1;SDS_P2;PMS_P1;PMS_P2;Temp;Humidity;BMP_temperature;BMP_pressure;BME280_temperature;BME280_humidity;BME280_pressure;Samples;Min_cycle;Max_cycle;Signal;HPM_P1;HPM_P2
2023/11/09 00:01:13;;;;;;;2.03;1.80;;;9.30;99.90;;;;;;4993960;28;20107;-78
2023/11/09 00:03:39;;;;;;;4.90;1.70;;;9.40;99.90;;;;;;5004308;28;20101;-78
2023/11/09 00:06:05;;;;;;;3.47;1.70;;;9.40;99.90;;;;;;5142676;23;20027;-79
2023/11/09 00:08:37;;;;;;;5.03;1.47;;;9.50;99.90;;;;;;5000223;28;20030;-77
2023/11/09 00:11:03;;;;;;;2.50;1.08;;;9.40;99.90;;;;;;5004059;28;20026;-79
2023/11/09 00:13:28;;;;;;;2.07;1.10;;;9.50;99.90;;;;;;5000425;28;20019;-78
2023/11/09 00:15:59;;;;;;;3.73;1.40;;;9.50;99.90;;;;;;5000040;28;20010;-78
2023/11/09 00:18:25;;;;;;;1.90;1.10;;;9.50;99.90;;;;;;4995630;28;20061;-78
2023/11/09 00:20:54;;;;;;;2.10;1.00;;;9.40;99.90;;;;;;4994222;28;20046;-79
2023/11/09 00:23:22;;;;;;;2.17;1.20;;;9.50;99.90;;;;;;4994544;28;20015;-78
2023/11/09 00:25:48;;;;;;;3.40;1.30;;;9.40;99.90;;;;;;4994167;28;20031;-79
2023/11/09 00:28:19;;;;;;;3.77;1.57;;;9.50;99.90;;;;;;4994666;28;20021;-78
2023/11/09 00:30:48;;;;;;;3.23;1.20;;;9.50;99.90;;;;;;4994722;28;20066;-78
2023/11/09 00:33:16;;;;;;;1.67;1.10;;;9.40;99.90;;;;;;4994227;28;20019;-79
2023/11/09 00:35:43;;;;;;;6.77;1.87;;;9.50;99.90;;;;;;4994676;28;20061;-79
2023/11/09 00:38:17;;;;;;;3.50;1.23;;;9.50;99.90;;;;;;4987852;28;20050;-79
2023/11/09 00:40:42;;;;;;;2.00;1.17;;;9.40;99.90;;;;;;4991191;28;20023;-79
2023/11/09 00:43:11;;;;;;;5.70;1.23;;;9.40;99.90;;;;;;4994148;28;20038;-79
2023/11/09 00:45:37;;;;;;;2.73;1.20;;;9.40;99.90;;;;;;4991886;28;20018;-79
2023/11/09 00:50:54;;;;;;;2.00;1.23;;;9.50;99.90;;;;;;5043182;23;20057;-78
2023/11/09 00:53:22;;;;;;;1.93;0.80;;;9.50;99.90;;;;;;5011633;28;20034;-78
2023/11/09 00:55:48;;;;;;;2.60;1.07;;;9.40;99.90;;;;;;5008982;28;20014;-79
2023/11/09 00:58:14;;;;;;;2.70;1.10;;;9.50;99.90;;;;;;5010187;28;20082;-78
2023/11/09 01:00:42;;;;;;;3.77;1.27;;;9.50;99.90;;;;;;5010425;28;20081;-78
2023/11/09 01:03:08;;;;;;;3.07;1.23;;;9.50;99.90;;;;;;5010849;28;20038;-79
2023/11/09 01:05:33;;;;;;;2.60;1.40;;;9.40;99.90;;;;;;5009535;28;20059;-80
2023/11/09 01:08:01;;;;;;;4.10;1.50;;;9.50;99.90;;;;;;5012098;28;20046;-80
2023/11/09 01:10:29;;;;;;;4.30;1.50;;;9.50;99.90;;;;;;5011181;28;20017;-79
2023/11/09 01:12:57;;;;;;;15.57;1.37;;;9.50;99.90;;;;;;5008376;28;20034;-78
2023/11/09 01:15:25;;;;;;;2.40;0.93;;;9.40;99.90;;;;;;5008442;28;20031;-79
2023/11/09 01:18:08;;;;;;;2.33;1.00;;;9.50;99.90;;;;;;5009970;28;20014;-80
2023/11/09 01:20:35;;;;;;;3.58;1.10;;;9.50;99.90;;;;;;5009555;28;20050;-79
2023/11/09 01:23:01;;;;;;;8.00;1.30;;;9.50;99.90;;;;;;5010805;28;20018;-79
2023/11/09 01:25:31;;;;;;;2.10;1.07;;;9.50;99.90;;;;;;4989246;28;20082;-78
2023/11/09 01:27:57;;;;;;;2.60;0.93;;;9.50;99.90;;;;;;5028778;28;20074;-80
2023/11/09 01:30:26;;;;;;;3.03;0.90;;;9.60;99.90;;;;;;5007570;28;20041;-79
2023/11/09 01:32:54;;;;;;;2.97;1.00;;;9.50;99.90;;;;;;5009093;28;20015;-79
2023/11/09 01:35:26;;;;;;;4.70;1.10;;;9.50;99.90;;;;;;5010966;28;20090;-79
2023/11/09 01:37:54;;;;;;;2.67;1.05;;;9.50;99.90;;;;;;5008740;28;20027;-79
2023/11/09 01:40:27;;;;;;;6.80;1.70;;;9.50;99.90;;;;;;5007708;28;20030;-80
2023/11/09 01:42:55;;;;;;;3.23;1.13;;;9.40;99.90;;;;;;5025330;28;20045;-79
2023/11/09 01:45:23;;;;;;;2.60;1.17;;;9.50;99.90;;;;;;5009132;28;20022;-79
2023/11/09 01:47:50;;;;;;;5.73;1.20;;;9.50;99.90;;;;;;5022973;28;20015;-80
2023/11/09 01:50:25;;;;;;;1.83;0.87;;;9.50;99.90;;;;;;5010013;28;20044;-79
2023/11/09 01:52:51;;;;;;;1.87;1.10;;;9.60;99.90;;;;;;5008246;28;20031;-79
2023/11/09 01:55:18;;;;;;;3.20;1.13;;;9.60;99.90;;;;;;5027047;28;20141;-79
2023/11/09 01:57:47;;;;;;;2.80;1.20;;;9.50;99.90;;;;;;5010884;28;20053;-80
2023/11/09 02:00:21;;;;;;;3.03;1.10;;;9.50;99.90;;;;;;5010889;28;20036;-80
2023/11/09 02:02:56;;;;;;;2.40;1.20;;;9.50;99.90;;;;;;5011618;28;20029;-80
2023/11/09 02:05:25;;;;;;;5.33;1.30;;;9.50;99.90;;;;;;5011246;28;20047;-79
2023/11/09 02:07:55;;;;;;;3.07;1.50;;;9.50;99.90;;;;;;5012593;28;20037;-79
2023/11/09 02:10:22;;;;;;;3.63;1.10;;;9.50;99.90;;;;;;5014042;28;20072;-79
2023/11/09 02:12:49;;;;;;;1.60;1.20;;;9.50;99.90;;;;;;5013966;28;20042;-79
2023/11/09 02:15:19;;;;;;;5.47;1.40;;;9.60;99.90;;;;;;5014736;28;20040;-80
2023/11/09 02:17:51;;;;;;;2.13;0.93;;;9.50;99.90;;;;;;5013751;28;20026;-79
2023/11/09 02:20:17;;;;;;;2.13;1.13;;;9.60;99.90;;;;;;5028719;28;20122;-79
2023/11/09 02:22:48;;;;;;;2.83;1.30;;;9.60;99.90;;;;;;5013469;28;20043;-78
2023/11/09 02:25:19;;;;;;;1.80;0.80;;;9.60;99.90;;;;;;5012867;28;20094;-78
2023/11/09 02:27:49;;;;;;;2.97;1.30;;;9.70;99.90;;;;;;5014202;28;20064;-79
2023/11/09 02:30:15;;;;;;;1.87;1.17;;;9.60;99.90;;;;;;5010055;28;20030;-80
2023/11/09 02:32:48;;;;;;;3.13;1.20;;;9.60;99.90;;;;;;5010550;28;20034;-78
2023/11/09 02:35:16;;;;;;;2.67;1.50;;;9.60;99.90;;;;;;5010424;28;20038;-79
2023/11/09 02:37:42;;;;;;;1.97;1.40;;;9.60;99.90;;;;;;5026518;28;20014;-80
2023/11/09 02:40:08;;;;;;;2.40;0.80;;;9.60;99.90;;;;;;5014450;28;20098;-79
2023/11/09 02:42:34;;;;;;;2.07;1.10;;;9.70;99.90;;;;;;5015300;28;20027;-80
2023/11/09 02:45:03;;;;;;;2.20;1.30;;;9.60;99.90;;;;;;5015512;28;20027;-79
2023/11/09 02:47:28;;;;;;;3.33;1.37;;;9.60;99.90;;;;;;5098278;23;20054;-79
2023/11/09 02:50:02;;;;;;;3.57;0.90;;;9.60;99.90;;;;;;5013444;28;20205;-79
2023/11/09 02:52:30;;;;;;;2.37;1.00;;;9.60;99.90;;;;;;5028925;28;20048;-79
2023/11/09 02:54:59;;;;;;;1.67;1.10;;;9.70;99.90;;;;;;5028519;28;20034;-79
2023/11/09 02:57:27;;;;;;;3.20;1.20;;;9.60;99.90;;;;;;5012062;28;20022;-80
2023/11/09 03:00:04;;;;;;;2.03;1.07;;;9.60;99.90;;;;;;5016139;28;20149;-80
2023/11/09 03:02:34;;;;;;;2.40;1.37;;;9.70;99.90;;;;;;5014275;28;20040;-78
2023/11/09 03:05:01;;;;;;;2.03;1.10;;;9.70;99.90;;;;;;5014721;28;20094;-79
2023/11/09 03:07:31;;;;;;;3.20;1.33;;;9.70;99.90;;;;;;5014064;28;20038;-78
2023/11/09 03:09:59;;;;;;;3.80;1.40;;;9.70;99.90;;;;;;5012647;28;20074;-79
2023/11/09 03:12:27;;;;;;;1.60;1.00;;;9.70;99.90;;;;;;5011021;28;20026;-79
2023/11/09 03:15:03;;;;;;;;;;;;;;;;;;;;;
2023/11/09 03:17:29;;;;;;;3.13;1.10;;;9.70;99.90;;;;;;5010917;28;20057;-79
2023/11/09 03:19:57;;;;;;;1.47;0.80;;;9.80;99.90;;;;;;5014567;28;20018;-79
2023/11/09 03:22:30;;;;;;;1.63;0.80;;;9.70;99.90;;;;;;5012727;28;20035;-79
2023/11/09 03:25:02;;;;;;;2.03;0.87;;;9.70;99.90;;;;;;5010930;28;20019;-78
2023/11/09 03:27:27;;;;;;;1.63;1.00;;;9.70;99.90;;;;;;5011219;28;20010;-78
2023/11/09 03:29:53;;;;;;;3.47;0.70;;;9.80;99.90;;;;;;5009356;28;20038;-82
2023/11/09 03:32:19;;;;;;;1.40;0.90;;;9.80;99.90;;;;;;5012144;28;20026;-79
2023/11/09 03:34:49;;;;;;;2.43;0.87;;;9.80;99.90;;;;;;5007045;28;20035;-79
2023/11/09 03:37:15;;;;;;;2.33;0.43;;;9.70;99.90;;;;;;5010861;28;20026;-80
2023/11/09 03:39:48;;;;;;;0.80;0.60;;;9.80;99.90;;;;;;5014754;28;20046;-79
2023/11/09 03:42:19;;;;;;;0.87;0.47;;;9.80;99.90;;;;;;5012850;28;20054;-79
2023/11/09 03:44:51;;;;;;;0.77;0.40;;;9.80;99.90;;;;;;5012411;28;20019;-79
2023/11/09 03:47:17;;;;;;;0.60;0.50;;;9.80;99.90;;;;;;5025546;28;20026;-79
2023/11/09 03:49:42;;;;;;;1.30;0.50;;;9.80;99.90;;;;;;5010635;28;20018;-79
2023/11/09 03:52:09;;;;;;;1.33;0.57;;;9.70;99.90;;;;;;5027146;28;20034;-79
2023/11/09 03:54:37;;;;;;;2.83;0.73;;;9.80;99.90;;;;;;5009966;28;20010;-79
2023/11/09 03:57:03;;;;;;;4.67;0.40;;;9.80;99.90;;;;;;5025356;28;21332;-78
2023/11/09 03:59:29;;;;;;;1.37;0.50;;;9.80;99.90;;;;;;5013914;28;20087;-78
2023/11/09 04:01:55;;;;;;;0.80;0.60;;;9.80;99.90;;;;;;5014131;28;20053;-80
2023/11/09 04:04:20;;;;;;;1.03;0.63;;;9.80;99.90;;;;;;5013377;28;20019;-79
2023/11/09 04:06:48;;;;;;;0.80;0.60;;;9.80;99.90;;;;;;5010886;28;20129;-79
2023/11/09 04:09:14;;;;;;;2.40;0.70;;;9.90;99.90;;;;;;5013628;28;20041;-79
2023/11/09 04:11:40;;;;;;;4.07;0.80;;;9.80;99.90;;;;;;5011871;28;20026;-79
2023/11/09 04:14:07;;;;;;;1.97;0.93;;;9.90;99.90;;;;;;5009765;28;20078;-78
2023/11/09 04:16:34;;;;;;;1.43;0.60;;;9.90;99.90;;;;;;5009482;28;20041;-78
2023/11/09 04:19:00;;;;;;;2.23;1.03;;;10.00;99.90;;;;;;5009108;28;20492;-79
2023/11/09 04:21:29;;;;;;;1.97;0.53;;;9.80;99.90;;;;;;5009842;28;20053;-79
2023/11/09 04:23:55;;;;;;;0.80;0.60;;;10.00;99.90;;;;;;5009722;28;20021;-79
2023/11/09 04:26:23;;;;;;;2.13;0.80;;;10.00;99.90;;;;;;5009312;28;20014;-79
2023/11/09 04:28:52;;;;;;;1.17;0.60;;;9.90;99.90;;;;;;5008083;28;20066;-79
2023/11/09 04:31:20;;;;;;;2.30;0.87;;;9.90;99.90;;;;;;5010277;28;20029;-78
2023/11/09 04:33:46;;;;;;;4.40;0.53;;;9.90;99.90;;;;;;5024968;28;20030;-78
2023/11/09 04:36:12;;;;;;;2.10;0.70;;;9.90;99.90;;;;;;5012833;28;20034;-79
2023/11/09 04:38:49;;;;;;;;;;;;;;;;;;;;;
2023/11/09 04:43:47;;;;;;;;;;;9.90;99.90;;;;;;4998613;28;20048;-78
2023/11/09 04:46:17;;;;;;;2.57;0.97;;;9.90;99.90;;;;;;4999463;28;19918;-77
2023/11/09 04:48:55;;;;;;;1.60;0.73;;;9.80;99.90;;;;;;4998877;28;20035;-79
2023/11/09 04:51:22;;;;;;;2.13;0.57;;;9.90;99.90;;;;;;4999260;28;20011;-79
2023/11/09 04:53:51;;;;;;;1.90;0.80;;;9.80;99.90;;;;;;5007223;28;20019;-79
2023/11/09 04:56:52;;;;;;;2.00;0.73;;;9.80;99.90;;;;;;4999000;28;20022;-79
2023/11/09 05:07:33;;;;;;;1.07;0.47;;;9.90;99.90;;;;;;4999351;28;20042;-79
2023/11/09 05:10:00;;;;;;;0.70;0.50;;;9.90;99.90;;;;;;4999731;28;20046;-80
2023/11/09 05:12:26;;;;;;;0.90;0.50;;;9.90;99.90;;;;;;4991285;28;20041;-79
2023/11/09 05:14:53;;;;;;;1.13;0.40;;;9.90;99.90;;;;;;4999406;28;20090;-80
2023/11/09 05:17:19;;;;;;;4.10;0.67;;;9.90;99.90;;;;;;5005448;28;20019;-79
2023/11/09 05:19:46;;;;;;;1.70;0.70;;;9.80;99.90;;;;;;4998348;28;20022;-80
2023/11/09 05:22:21;;;;;;;1.70;0.83;;;9.80;99.90;;;;;;4998543;28;20090;-79
2023/11/09 05:24:47;;;;;;;2.10;0.70;;;9.70;99.90;;;;;;5004979;28;20045;-78
2023/11/09 05:27:15;;;;;;;3.03;0.70;;;9.80;99.90;;;;;;5002683;28;20038;-78
2023/11/09 05:29:46;;;;;;;1.77;0.40;;;9.80;99.90;;;;;;4993241;28;20023;-79
2023/11/09 05:32:17;;;;;;;3.93;0.87;;;9.80;99.90;;;;;;4991000;28;20027;-81
2023/11/09 05:34:45;;;;;;;2.43;0.93;;;9.70;99.90;;;;;;5014455;28;20030;-80
2023/11/09 05:37:13;;;;;;;2.17;0.83;;;9.70;99.90;;;;;;5014194;28;20050;-79
2023/11/09 05:39:40;;;;;;;1.20;0.60;;;9.70;99.90;;;;;;4997612;28;20027;-79
2023/11/09 05:42:09;;;;;;;2.47;1.00;;;9.60;99.90;;;;;;4997766;28;20039;-79
2023/11/09 05:44:35;;;;;;;1.73;0.80;;;9.60;99.90;;;;;;4997045;28;20019;-80
2023/11/09 05:47:01;;;;;;;3.47;1.10;;;9.60;99.90;;;;;;4998131;28;20026;-79
2023/11/09 05:49:28;;;;;;;1.83;0.90;;;9.50;99.90;;;;;;5014501;28;20026;-79
2023/11/09 05:51:56;;;;;;;2.40;1.00;;;9.60;99.90;;;;;;4998154;28;20007;-79
2023/11/09 05:54:24;;;;;;;1.50;1.00;;;9.50;99.90;;;;;;4999343;28;20015;-79
2023/11/09 05:56:50;;;;;;;2.67;0.90;;;9.40;99.90;;;;;;4997938;28;20029;-79
2023/11/09 05:59:19;;;;;;;4.03;1.70;;;9.50;99.90;;;;;;4998262;28;20007;-79
2023/11/09 06:01:50;;;;;;;2.23;1.37;;;9.50;99.90;;;;;;5001639;28;20059;-82
2023/11/09 06:04:15;;;;;;;2.03;1.17;;;9.50;99.90;;;;;;4993160;28;20015;-80
2023/11/09 06:06:43;;;;;;;4.47;1.20;;;9.50;99.90;;;;;;4997718;28;20022;-80
2023/11/09 06:09:12;;;;;;;5.50;1.53;;;9.40;99.90;;;;;;5000686;28;20022;-79
2023/11/09 06:11:40;;;;;;;3.77;1.53;;;9.40;99.90;;;;;;5020967;28;20098;-81
2023/11/09 06:14:07;;;;;;;6.33;3.07;;;9.40;99.90;;;;;;5024399;28;20020;-80
2023/11/09 06:16:33;;;;;;;4.33;1.87;;;9.40;99.90;;;;;;4997852;28;20019;-80
2023/11/09 06:19:06;;;;;;;4.57;1.53;;;9.30;99.90;;;;;;5002772;28;20463;-79
2023/11/09 06:21:34;;;;;;;2.73;1.80;;;9.40;99.90;;;;;;4990782;28;20093;-80
2023/11/09 06:24:02;;;;;;;3.03;1.70;;;9.40;99.90;;;;;;4990642;28;20078;-79
2023/11/09 06:26:33;;;;;;;2.77;1.33;;;9.40;99.90;;;;;;4991894;28;20011;-80
2023/11/09 06:29:00;;;;;;;2.17;1.50;;;9.30;99.90;;;;;;4992740;28;20041;-78
2023/11/09 06:31:29;;;;;;;5.30;1.70;;;9.30;99.90;;;;;;4992625;28;20019;-78
2023/11/09 06:33:55;;;;;;;3.30;1.70;;;9.40;99.90;;;;;;4992517;28;20023;-78
2023/11/09 06:36:28;;;;;;;4.90;2.00;;;9.40;99.90;;;;;;4993462;28;20086;-79
2023/11/09 06:38:56;;;;;;;4.63;2.00;;;9.30;99.90;;;;;;5036369;22;20049;-79
2023/11/09 06:41:27;;;;;;;4.73;2.47;;;9.30;99.90;;;;;;5024909;28;20030;-81
2023/11/09 06:43:55;;;;;;;3.03;1.90;;;9.40;99.90;;;;;;5029840;28;20034;-78
2023/11/09 06:46:27;;;;;;;4.77;1.87;;;9.30;99.90;;;;;;5032996;28;20022;-79
2023/11/09 06:49:17;;;;;;;3.93;2.30;;;9.40;99.90;;;;;;5032839;28;20018;-79
2023/11/09 06:51:43;;;;;;;3.07;1.80;;;9.30;99.90;;;;;;5035759;28;20026;-79
2023/11/09 06:54:09;;;;;;;4.57;1.90;;;9.30;99.90;;;;;;5040047;28;20019;-78
2023/11/09 06:56:36;;;;;;;3.57;1.80;;;9.40;99.90;;;;;;5038144;28;20048;-78
2023/11/09 06:59:08;;;;;;;7.13;2.03;;;9.30;99.90;;;;;;5036859;28;20048;-79
2023/11/09 07:01:35;;;;;;;6.35;2.58;;;9.30;99.90;;;;;;5040390;28;20041;-78
2023/11/09 07:04:03;;;;;;;6.27;1.63;;;9.40;99.90;;;;;;5038417;28;20018;-79
2023/11/09 07:06:28;;;;;;;4.33;2.07;;;9.40;99.90;;;;;;5037816;28;20041;-79
2023/11/09 07:08:54;;;;;;;3.00;1.43;;;9.40;99.90;;;;;;5036823;28;20029;-79
2023/11/09 07:11:20;;;;;;;2.00;1.30;;;9.30;99.90;;;;;;5041950;28;20058;-78
2023/11/09 07:13:48;;;;;;;4.80;1.43;;;9.30;99.90;;;;;;5041721;28;20022;-79
2023/11/09 07:16:16;;;;;;;1.77;1.30;;;9.40;99.90;;;;;;5037132;28;20017;-79
2023/11/09 07:18:43;;;;;;;3.27;1.27;;;9.30;99.90;;;;;;5035538;28;20010;-79
2023/11/09 07:21:24;;;;;;;;;;;;;;;;;;;;;
2023/11/09 07:23:59;;;;;;;2.60;1.27;;;9.30;99.90;;;;;;5041342;28;20057;-80
2023/11/09 07:26:29;;;;;;;3.67;1.40;;;9.30;99.90;;;;;;5037819;28;20026;-79
2023/11/09 07:28:55;;;;;;;2.47;1.70;;;9.40;99.90;;;;;;5038110;28;20028;-79
2023/11/09 07:31:25;;;;;;;1.77;1.07;;;9.30;99.90;;;;;;5034044;28;20049;-80
2023/11/09 07:34:15;;;;;;;3.73;1.80;;;9.40;99.90;;;;;;5036400;28;20018;-80
2023/11/09 07:36:41;;;;;;;1.90;1.20;;;9.40;99.90;;;;;;5040240;28;20040;-79
2023/11/09 07:39:09;;;;;;;4.30;1.40;;;9.40;99.90;;;;;;5036459;28;20034;-79
2023/11/09 07:41:36;;;;;;;3.27;1.17;;;9.40;99.90;;;;;;5230274;22;20048;-80
2023/11/09 07:44:03;;;;;;;2.70;1.13;;;9.40;99.90;;;;;;5009465;28;20053;-79
2023/11/09 07:46:30;;;;;;;2.10;1.27;;;9.40;99.90;;;;;;5010388;28;20033;-79
2023/11/09 07:49:01;;;;;;;1.67;1.10;;;9.40;99.90;;;;;;5009453;28;20200;-80
2023/11/09 07:51:27;;;;;;;2.53;1.27;;;9.30;99.90;;;;;;5008267;28;20026;-79
2023/11/09 07:53:55;;;;;;;2.93;1.40;;;9.40;99.90;;;;;;5010502;28;20033;-79
2023/11/09 07:56:23;;;;;;;4.03;1.57;;;9.50;99.90;;;;;;5023672;28;20039;-80
2023/11/09 07:58:51;;;;;;;2.27;1.27;;;9.40;99.90;;;;;;5009247;28;20023;-79
2023/11/09 08:01:19;;;;;;;2.13;1.07;;;9.50;99.90;;;;;;5009035;28;20038;-79
2023/11/09 08:03:47;;;;;;;2.17;1.30;;;9.50;99.90;;;;;;5005862;28;20023;-78
2023/11/09 08:06:17;;;;;;;1.63;1.20;;;9.50;99.90;;;;;;5007552;28;20022;-79
2023/11/09 08:08:47;;;;;;;2.33;1.00;;;9.60;99.90;;;;;;5010972;28;20049;-80
2023/11/09 08:11:17;;;;;;;1.43;1.20;;;9.60;99.90;;;;;;5009213;28;20048;-79
2023/11/09 08:13:43;;;;;;;3.00;0.93;;;9.60;99.90;;;;;;5073584;23;20038;-79
2023/11/09 08:16:08;;;;;;;1.93;1.00;;;9.70;99.90;;;;;;5030342;28;20090;-77
2023/11/09 08:18:36;;;;;;;1.93;1.17;;;9.60;99.90;;;;;;5015134;28;20037;-77
2023/11/09 08:21:14;;;;;;;2.03;0.83;;;9.70;99.90;;;;;;5013810;28;20046;-77
2023/11/09 08:23:42;;;;;;;0.90;0.53;;;9.70;99.90;;;;;;5014073;28;20042;-77
2023/11/09 08:26:11;;;;;;;1.40;0.70;;;9.70;99.90;;;;;;5012921;28;20049;-79
2023/11/09 08:28:40;;;;;;;1.00;0.70;;;9.70;99.90;;;;;;5014327;28;20015;-79
2023/11/09 08:31:08;;;;;;;1.27;0.77;;;9.70;99.90;;;;;;5013681;28;20042;-79
2023/11/09 08:33:35;;;;;;;3.30;0.60;;;9.70;99.90;;;;;;5014529;28;20014;-79
2023/11/09 08:36:04;;;;;;;3.27;0.90;;;9.70;99.90;;;;;;5012834;28;20044;-79
2023/11/09 08:38:33;;;;;;;1.27;0.90;;;9.70;99.90;;;;;;5013231;28;20019;-79
2023/11/09 08:41:02;;;;;;;1.33;0.90;;;9.80;99.90;;;;;;5013145;28;20046;-79
2023/11/09 08:43:29;;;;;;;2.53;1.00;;;9.70;99.90;;;;;;5028362;28;20054;-78
2023/11/09 08:45:57;;;;;;;3.53;1.10;;;9.70;99.90;;;;;;5011030;28;20041;-78
2023/11/09 08:48:26;;;;;;;4.87;1.00;;;9.50;99.90;;;;;;5010286;28;20015;-78
2023/11/09 08:51:02;;;;;;;9.77;1.23;;;9.40;99.90;;;;;;5008003;28;20010;-79
2023/11/09 08:53:34;;;;;;;10.13;1.53;;;9.30;99.90;;;;;;5010844;28;20033;-79
2023/11/09 08:56:00;;;;;;;;;;;9.20;99.90;;;;;;5012314;28;20026;-78
2023/11/09 08:58:29;;;;;;;18.53;1.97;;;9.20;99.90;;;;;;5011017;28;19925;-79
2023/11/09 09:01:01;;;;;;;11.30;2.33;;;9.20;99.90;;;;;;5026437;28;20050;-77
2023/11/09 09:03:27;;;;;;;10.10;1.52;;;9.10;99.90;;;;;;5012087;28;20251;-79
2023/11/09 09:05:55;;;;;;;14.17;1.70;;;9.10;99.90;;;;;;5012475;28;20045;-78
2023/11/09 09:08:26;;;;;;;13.10;2.10;;;9.10;99.90;;;;;;5009635;28;20026;-80
2023/11/09 09:10:56;;;;;;;13.67;2.00;;;9.10;99.90;;;;;;5012390;28;20021;-79
2023/11/09 09:13:26;;;;;;;13.53;2.13;;;9.20;99.90;;;;;;5013145;28;20139;-79
2023/11/09 09:15:55;;;;;;;9.23;2.17;;;9.20;99.90;;;;;;5003590;28;20029;-79
2023/11/09 09:18:25;;;;;;;9.97;2.50;;;9.20;99.90;;;;;;5012591;28;20011;-79
2023/11/09 09:20:53;;;;;;;9.37;2.30;;;9.20;99.90;;;;;;5011266;28;20057;-78
2023/11/09 09:23:22;;;;;;;12.17;2.67;;;9.30;99.90;;;;;;5011854;28;20050;-80
2023/11/09 09:25:56;;;;;;;10.43;2.43;;;9.20;99.90;;;;;;5027137;28;20022;-80
2023/11/09 09:28:34;;;;;;;11.17;2.43;;;9.30;99.90;;;;;;5025680;28;20027;-80
2023/11/09 09:31:11;;;;;;;13.23;2.10;;;9.20;99.90;;;;;;5012310;28;20030;-79
2023/11/09 09:33:41;;;;;;;12.77;2.53;;;9.30;99.90;;;;;;5027456;28;20061;-79
2023/11/09 09:36:11;;;;;;;16.13;3.50;;;9.30;99.90;;;;;;5012242;28;20018;-78
2023/11/09 09:38:51;;;;;;;9.33;2.23;;;9.30;99.90;;;;;;5027077;28;20042;-80
2023/11/09 09:41:26;;;;;;;11.10;2.50;;;9.30;99.90;;;;;;5026537;28;20098;-79
2023/11/09 09:43:57;;;;;;;12.50;2.27;;;9.30;99.90;;;;;;5010392;28;20021;-79
2023/11/09 09:46:35;;;;;;;7.67;2.20;;;9.30;99.90;;;;;;5007452;28;20038;-79
2023/11/09 09:49:05;;;;;;;21.10;2.83;;;9.40;99.90;;;;;;5021442;28;20077;-80
2023/11/09 09:51:34;;;;;;;12.57;1.90;;;9.40;99.90;;;;;;5011970;28;20027;-80
2023/11/09 09:54:02;;;;;;;12.80;2.93;;;9.50;99.90;;;;;;5008273;28;20023;-81
2023/11/09 09:56:29;;;;;;;15.23;3.77;;;9.60;99.90;;;;;;5011449;28;20026;-79
2023/11/09 09:58:58;;;;;;;8.23;2.10;;;9.50;99.90;;;;;;5005733;28;20086;-78
2023/11/09 10:01:28;;;;;;;9.77;2.30;;;9.60;99.90;;;;;;5012289;28;20193;-81
2023/11/09 10:03:54;;;;;;;10.03;1.80;;;9.60;99.90;;;;;;5009881;28;20034;-80
2023/11/09 10:06:21;;;;;;;10.93;2.57;;;9.70;99.90;;;;;;5009649;28;20029;-79
2023/11/09 10:08:49;;;;;;;13.37;1.90;;;9.70;99.90;;;;;;5011210;28;20023;-79
2023/11/09 10:11:20;;;;;;;19.07;3.07;;;9.80;99.90;;;;;;5027961;28;20086;-79
2023/11/09 10:13:50;;;;;;;13.43;2.83;;;9.80;99.90;;;;;;5012478;28;20126;-78
2023/11/09 10:16:18;;;;;;;8.90;2.70;;;9.70;99.90;;;;;;5025215;28;20034;-79
2023/11/09 10:18:50;;;;;;;12.73;2.33;;;9.80;99.90;;;;;;5010140;28;20015;-79
2023/11/09 10:21:17;;;;;;;9.43;2.50;;;9.80;99.90;;;;;;5012819;28;20050;-79
2023/11/09 10:23:54;;;;;;;8.83;2.00;;;9.70;99.90;;;;;;5010130;28;20050;-80
2023/11/09 10:26:20;;;;;;;7.47;1.80;;;9.70;99.90;;;;;;5025125;28;20022;-80
2023/11/09 10:28:55;;;;;;;10.93;2.30;;;9.70;99.90;;;;;;5014017;28;20026;-78
2023/11/09 10:31:38;;;;;;;9.13;2.10;;;9.80;99.90;;;;;;5015952;28;20114;-78
2023/11/09 10:34:11;;;;;;;23.00;2.87;;;9.90;99.90;;;;;;5016232;28;20095;-80
2023/11/09 10:36:46;;;;;;;10.17;1.93;;;9.90;99.90;;;;;;5014063;28;20037;-78
2023/11/09 10:39:29;;;;;;;9.90;2.60;;;9.90;99.90;;;;;;5014836;28;20066;-79
2023/11/09 10:41:57;;;;;;;;;;;9.90;99.90;;;;;;5016933;28;20049;-80
2023/11/09 10:44:33;;;;;;;10.37;1.93;;;10.00;99.90;;;;;;5013766;28;19921;-78
2023/11/09 10:47:08;;;;;;;12.30;2.27;;;10.20;99.90;;;;;;5037012;28;20007;-78
2023/11/09 10:49:43;;;;;;;13.60;2.70;;;10.40;99.90;;;;;;5013630;28;20015;-81
2023/11/09 10:52:12;;;;;;;10.77;2.63;;;10.40;99.90;;;;;;5024227;28;20010;-81
2023/11/09 10:54:42;;;;;;;10.27;2.53;;;10.40;99.90;;;;;;5037154;28;20062;-80
2023/11/09 10:57:09;;;;;;;17.00;2.80;;;10.50;99.90;;;;;;5036866;28;20042;-79
2023/11/09 10:59:40;;;;;;;10.43;2.80;;;10.50;99.90;;;;;;5020575;28;20015;-79
2023/11/09 11:02:16;;;;;;;13.35;3.35;;;10.40;99.90;;;;;;5020340;28;20077;-80
2023/11/09 11:05:01;;;;;;;9.67;3.13;;;10.40;99.90;;;;;;5034792;28;20011;-79
2023/11/09 11:07:32;;;;;;;12.10;3.03;;;10.40;99.90;;;;;;5035757;28;20021;-80
2023/11/09 11:09:59;;;;;;;8.57;2.77;;;10.50;99.90;;;;;;5006370;28;20003;-80
2023/11/09 11:12:25;;;;;;;12.30;2.43;;;10.50;99.90;;;;;;5024540;28;20011;-78
2023/11/09 11:14:53;;;;;;;8.27;2.27;;;10.40;99.90;;;;;;5020134;28;20052;-78
2023/11/09 11:17:22;;;;;;;10.07;2.20;;;10.50;99.90;;;;;;5020217;28;20014;-79
2023/11/09 11:20:38;;;;;;;10.93;2.00;;;10.50;99.90;;;;;;5038533;28;20038;-78
2023/11/09 11:23:25;;;;;;;11.33;2.53;;;10.60;99.90;;;;;;5016886;28;20045;-81
2023/11/09 11:26:04;;;;;;;7.50;2.40;;;10.70;99.90;;;;;;5036066;28;20018;-80
2023/11/09 11:28:33;;;;;;;14.63;3.20;;;10.70;99.90;;;;;;5020357;28;20014;-78
2023/11/09 11:31:09;;;;;;;10.07;2.13;;;10.80;99.90;;;;;;5011650;28;20101;-80
2023/11/09 11:33:37;;;;;;;11.03;2.20;;;10.80;99.90;;;;;;5019337;28;20014;-80
2023/11/09 11:36:06;;;;;;;9.60;2.60;;;10.90;99.90;;;;;;5011663;28;20041;-79
2023/11/09 11:38:33;;;;;;;10.13;2.10;;;10.80;99.90;;;;;;5035115;28;20027;-79
2023/11/09 11:41:12;;;;;;;5.80;1.90;;;10.90;99.90;;;;;;5019586;28;20038;-81
2023/11/09 11:43:40;;;;;;;12.00;2.30;;;10.80;99.90;;;;;;5036072;28;20038;-78
2023/11/09 11:46:11;;;;;;;8.33;2.93;;;10.80;99.90;;;;;;5035996;28;20029;-78
2023/11/09 11:48:44;;;;;;;7.43;2.60;;;10.70;99.90;;;;;;5035901;28;20043;-81
2023/11/09 11:51:15;;;;;;;10.03;1.57;;;10.80;99.90;;;;;;5009108;28;20018;-79
2023/11/09 11:53:50;;;;;;;9.53;2.83;;;10.70;99.90;;;;;;5023304;28;20006;-81
2023/11/09 11:56:20;;;;;;;11.23;2.20;;;10.70;99.90;;;;;;5019633;28;20046;-78
2023/11/09 11:58:55;;;;;;;8.93;2.40;;;10.70;99.90;;;;;;5022579;28;20014;-80
2023/11/09 12:01:29;;;;;;;8.93;2.37;;;10.80;99.90;;;;;;5036003;28;20041;-80
2023/11/09 12:04:02;;;;;;;6.47;1.70;;;10.80;99.90;;;;;;5024367;28;20082;-79
2023/11/09 12:06:41;;;;;;;9.10;1.60;;;10.70;99.90;;;;;;5035754;28;20033;-78
2023/11/09 12:09:10;;;;;;;10.00;1.80;;;10.70;99.90;;;;;;5016674;28;20049;-79
2023/11/09 12:11:55;;;;;;;8.67;1.83;;;10.80;99.90;;;;;;5008656;28;20025;-79
2023/11/09 12:14:20;;;;;;;10.10;2.53;;;10.90;99.90;;;;;;5010428;28;20022;-79
2023/11/09 12:16:46;;;;;;;11.20;2.70;;;10.90;99.90;;;;;;5028487;28;20025;-79
2023/11/09 12:19:16;;;;;;;6.80;1.70;;;11.00;99.90;;;;;;5013480;28;20069;-79
2023/11/09 12:21:45;;;;;;;7.77;1.90;;;11.00;99.90;;;;;;5013416;28;20033;-79
2023/11/09 12:24:13;;;;;;;12.90;2.60;;;11.00;99.90;;;;;;5012962;28;20025;-79
2023/11/09 12:26:44;;;;;;;8.70;1.93;;;11.20;99.90;;;;;;5012755;28;20090;-79
2023/11/09 12:29:15;;;;;;;8.13;2.03;;;11.10;99.90;;;;;;5011261;28;20022;-78
2023/11/09 12:31:44;;;;;;;8.97;1.93;;;11.10;99.90;;;;;;5026675;28;20034;-79
2023/11/09 12:34:17;;;;;;;6.13;1.53;;;11.10;99.90;;;;;;5011552;28;20041;-79
2023/11/09 12:36:51;;;;;;;7.03;1.90;;;11.20;99.90;;;;;;5012288;28;20987;-79
2023/11/09 12:41:50;;;;;;;6.15;1.60;;;11.30;99.90;;;;;;5012211;28;20046;-79
2023/11/09 12:44:24;;;;;;;9.07;1.80;;;11.30;99.90;;;;;;5012350;28;20034;-78
2023/11/09 12:46:55;;;;;;;7.37;1.70;;;11.30;99.90;;;;;;5011002;28;20019;-79
2023/11/09 12:49:24;;;;;;;10.90;2.03;;;11.30;99.90;;;;;;5012851;28;20025;-79
2023/11/09 12:52:05;;;;;;;6.10;1.50;;;11.40;99.90;;;;;;5004602;28;20010;-80
2023/11/09 12:54:32;;;;;;;6.93;2.00;;;11.60;99.90;;;;;;5011412;28;20065;-79
2023/11/09 12:57:04;;;;;;;10.83;1.97;;;11.80;99.90;;;;;;5010633;28;20033;-79
2023/11/09 12:59:35;;;;;;;6.30;1.77;;;11.80;99.90;;;;;;5026765;28;20074;-78
2023/11/09 13:02:05;;;;;;;6.87;1.93;;;12.00;99.90;;;;;;5012446;28;20065;-79
2023/11/09 13:04:41;;;;;;;7.63;1.57;;;12.10;99.90;;;;;;5005614;28;20022;-79
2023/11/09 13:07:12;;;;;;;7.10;1.60;;;12.10;99.90;;;;;;5029297;28;20109;-79
2023/11/09 13:09:48;;;;;;;5.00;1.43;;;12.00;99.90;;;;;;5012936;28;20037;-79
2023/11/09 13:12:32;;;;;;;12.27;3.23;;;12.00;99.90;;;;;;5022650;28;20026;-79
2023/11/09 13:17:56;;;;;;;12.60;2.60;;;11.90;99.90;;;;;;5013351;28;20014;-79
2023/11/09 13:20:47;;;;;;;;;;;;;;;;;;;;;
2023/11/09 13:23:16;;;;;;;10.73;1.67;;;12.40;99.90;;;;;;5012919;28;20054;-79
2023/11/09 13:25:49;;;;;;;12.80;2.67;;;12.40;99.90;;;;;;5012141;28;20026;-80
2023/11/09 13:28:24;;;;;;;9.07;1.90;;;12.20;99.90;;;;;;5010059;28;20022;-79
2023/11/09 13:31:03;;;;;;;13.37;1.97;;;12.10;99.90;;;;;;5012147;28;20029;-78